Seaway II — ZMR3466 — position and weather

sailwx.info

Track history (hours):
 
Tides and Currents Weather Stations Pressure Air Temp Water Temp Dewpoint Dewpoint Depression Visibility Wind Speed Wind Dir Waves Ship Positions

Seaway II

Last reported at 2015-Sep-01 21:27 UTC. Time now 2015-Sep-01 22:25 UTC.
Position S 36°50' E 174°55'.

Length 37 m.

Type: Passenger vessel. MMSI: 512001026.

Date/timePositionNaut miles runAvg speedWind from/ knotsBaromVisibWave heightAir tempDewpointWater temp
2015-Sep-01 21:27S 36°50' E 174°55'1 1.0
2015-Sep-01 20:34S 36°50' E 174°57'1 0.8
2015-Sep-01 19:27S 36°50' E 174°56'1 1.6
2015-Sep-01 18:33S 36°50' E 174°57'4 3.7
2015-Sep-01 17:29S 36°53' E 174°54'0 0.0
2015-Sep-01 16:32S 36°53' E 174°54'0 0.0
2015-Sep-01 15:29S 36°53' E 174°54'0 0.0
2015-Sep-01 14:32S 36°53' E 174°54'0 0.0
2015-Sep-01 13:20S 36°53' E 174°54'0 0.0
2015-Sep-01 12:32S 36°53' E 174°54'0 0.0
2015-Sep-01 11:32S 36°53' E 174°54'0 0.0
2015-Sep-01 10:20S 36°53' E 174°54'0 0.0
2015-Sep-01 09:25S 36°53' E 174°54'0 0.0
2015-Sep-01 08:31S 36°53' E 174°54'1 1.4
2015-Sep-01 07:33S 36°51' E 174°54'4 4.3
2015-Sep-01 06:33S 36°50' E 174°58'4 4.1
2015-Sep-01 05:33S 36°51' E 174°53'3 2.8
2015-Sep-01 04:33S 36°50' E 174°57'1 1.0
2015-Sep-01 03:27S 36°49' E 174°56'1 0.7
2015-Sep-01 02:33S 36°50' E 174°55'2 1.2
2015-Sep-01 00:33S 36°50' E 174°58'4 3.6
2015-Aug-31 23:33S 36°51' E 174°53'5 4.5
2015-Aug-31 22:32S 36°50' E 174°59'5 4.8
2015-Aug-31 21:33S 36°51' E 174°54'4 3.7
2015-Aug-31 20:30S 36°50' E 174°58'0 0.1
2015-Aug-31 18:33S 36°50' E 174°58'4 0.7
2015-Aug-31 12:21S 36°53' E 174°54'0 0.0
2015-Aug-31 11:21S 36°53' E 174°54'0 0.0
2015-Aug-31 10:33S 36°53' E 174°54'1 0.3
2015-Aug-31 07:33S 36°52' E 174°54'5 4.7
2015-Aug-31 06:33S 36°50' E 174°59'4 1.9
2015-Aug-31 04:30S 36°50' E 174°54'3 0.8
2015-Aug-31 00:31S 36°50' E 174°58'4 4.2
2015-Aug-30 23:33S 36°51' E 174°53'4 3.9
2015-Aug-30 22:30S 36°50' E 174°58'4 4.4
2015-Aug-30 21:33S 36°51' E 174°53'4 4.0
2015-Aug-30 20:31S 36°50' E 174°58'0 0.1
2015-Aug-30 18:33S 36°50' E 174°58'5 4.5
2015-Aug-30 17:33S 36°53' E 174°54'0 0.0
2015-Aug-30 16:33S 36°53' E 174°54'0 0.0
2015-Aug-30 15:33S 36°53' E 174°54'0 0.0
2015-Aug-30 14:33S 36°53' E 174°54'0 0.0
2015-Aug-30 13:33S 36°53' E 174°54'0 0.0
2015-Aug-30 12:27S 36°53' E 174°54'0 0.0
2015-Aug-30 11:30S 36°53' E 174°54'0 0.0
2015-Aug-30 10:30S 36°53' E 174°54'1 0.4
2015-Aug-30 07:33S 36°52' E 174°54'4 3.7
2015-Aug-30 06:33S 36°50' E 174°58'1 1.1
2015-Aug-30 05:33S 36°50' E 174°56'2 1.7
2015-Aug-30 04:33S 36°51' E 174°54'1 0.6
2015-Aug-30 02:33S 36°50' E 174°55'2 0.7
2015-Aug-29 23:33S 36°51' E 174°53'5 4.6
2015-Aug-29 22:33S 36°50' E 174°59'5 4.6
2015-Aug-29 21:33S 36°51' E 174°53'5 4.8
2015-Aug-29 20:33S 36°49' E 174°59'5 4.5
2015-Aug-29 19:21S 36°53' E 174°54'0 0.0
2015-Aug-29 17:27S 36°53' E 174°54'0 0.0
2015-Aug-29 16:21S 36°53' E 174°54'0 0.0
2015-Aug-29 15:15S 36°53' E 174°54'0 0.0
2015-Aug-29 14:09S 36°53' E 174°54'0 0.0
2015-Aug-29 13:27S 36°53' E 174°54'0 0.0
2015-Aug-29 11:27S 36°53' E 174°54'0 0.0
2015-Aug-29 10:27S 36°53' E 174°54'0 0.0
2015-Aug-29 09:15S 36°53' E 174°54'0 0.0
2015-Aug-29 08:33S 36°53' E 174°54'1 1.5
2015-Aug-29 07:33S 36°51' E 174°54'4 4.4
2015-Aug-29 06:33S 36°50' E 174°59'4 4.4
2015-Aug-29 05:33S 36°52' E 174°54'4 4.1
2015-Aug-29 04:33S 36°50' E 174°58'4 4.1
2015-Aug-29 03:33S 36°51' E 174°53'3 3.2
2015-Aug-29 02:33S 36°50' E 174°57'3 2.7
2015-Aug-29 01:33S 36°51' E 174°54'1 1.3
2015-Aug-29 00:32S 36°50' E 174°55'2 1.6
2015-Aug-28 23:33S 36°50' E 174°53'4 4.2
2015-Aug-28 22:33S 36°50' E 174°58'4 3.6
2015-Aug-28 21:33S 36°51' E 174°54'5 4.6
2015-Aug-28 20:33S 36°50' E 174°59'5 4.8
2015-Aug-28 19:33S 36°51' E 174°53'5 4.8
2015-Aug-28 18:33S 36°50' E 174°59'5 5.3
2015-Aug-28 17:33S 36°53' E 174°54'0 0.0
2015-Aug-28 16:33S 36°53' E 174°54'0 0.0
2015-Aug-28 15:33S 36°53' E 174°54'0 0.0
2015-Aug-28 14:33S 36°53' E 174°54'0 0.0
2015-Aug-28 13:33S 36°53' E 174°54'0 0.0
2015-Aug-28 12:32S 36°53' E 174°54'0 0.0
2015-Aug-28 11:33S 36°53' E 174°54'0 0.0
2015-Aug-28 10:33S 36°53' E 174°54'0 0.0
2015-Aug-28 09:30S 36°53' E 174°54'0 0.0
2015-Aug-28 08:33S 36°53' E 174°54'3 3.3
2015-Aug-28 07:32S 36°50' E 174°56'2 2.4
2015-Aug-28 06:33S 36°51' E 174°53'7 4.8
2015-Aug-28 05:09S 36°49' E 175°01'711.0
2015-Aug-28 04:32S 36°52' E 174°54'7 4.8
2015-Aug-28 03:08S 36°49' E 175°01'711.7
2015-Aug-28 02:33S 36°52' E 174°54'7 4.6
2015-Aug-28 01:07S 36°49' E 175°01'711.9
2015-Aug-28 00:33S 36°51' E 174°53'3 1.5
2015-Aug-27 22:33S 36°50' E 174°57'2 0.8
2015-Aug-27 20:33S 36°50' E 174°59'5 4.7
2015-Aug-27 19:33S 36°51' E 174°54'5 4.8
2015-Aug-27 18:33S 36°50' E 174°59'5 5.0
2015-Aug-27 17:30S 36°53' E 174°54'0 0.0
2015-Aug-27 16:33S 36°53' E 174°54'0 0.0
2015-Aug-27 15:33S 36°53' E 174°54'0 0.0
2015-Aug-27 14:33S 36°53' E 174°54'0 0.0
2015-Aug-27 13:33S 36°53' E 174°54'0 0.0
2015-Aug-27 12:33S 36°53' E 174°54'0 0.0
2015-Aug-27 11:33S 36°53' E 174°54'0 0.0
2015-Aug-27 08:11S 36°53' E 174°54'2 2.5
2015-Aug-27 07:33S 36°51' E 174°53'3 2.6
2015-Aug-27 06:33S 36°50' E 174°56'2 1.1
2015-Aug-27 04:33S 36°51' E 174°54'1 0.7
2015-Aug-27 02:33S 36°50' E 174°55'2 1.7
2015-Aug-27 01:30S 36°50' E 174°58'3 3.5
2015-Aug-27 00:34S 36°51' E 174°54'6 4.1
2015-Aug-26 23:05S 36°49' E 175°01'611.6
2015-Aug-26 22:33S 36°51' E 174°54'2 0.8
2015-Aug-26 20:33S 36°50' E 174°56'2 0.8
2015-Aug-26 18:33S 36°50' E 174°58'4 4.0
2015-Aug-26 17:30S 36°53' E 174°54'0 0.0
2015-Aug-26 16:30S 36°53' E 174°54'0 0.0
2015-Aug-26 15:30S 36°53' E 174°54'0 0.0
2015-Aug-26 14:30S 36°53' E 174°54'0 0.0
2015-Aug-26 13:27S 36°53' E 174°54'0 0.0
2015-Aug-26 12:30S 36°53' E 174°54'0 0.0
2015-Aug-26 11:33S 36°53' E 174°54'0 0.0
2015-Aug-26 10:33S 36°53' E 174°54'0 0.0
2015-Aug-26 09:30S 36°53' E 174°54'0 0.0
2015-Aug-26 08:32S 36°53' E 174°54'2 2.0
2015-Aug-26 07:33S 36°51' E 174°53'5 4.9
2015-Aug-26 06:33S 36°49' E 174°59'5 2.2
2015-Aug-26 04:27S 36°51' E 174°54'3 1.7
2015-Aug-26 02:33S 36°50' E 174°58'4 3.7
2015-Aug-26 01:33S 36°51' E 174°53'3 3.2
2015-Aug-26 00:33S 36°50' E 174°57'0 0.1
2015-Aug-25 22:33S 36°50' E 174°57'0 0.2
2015-Aug-25 20:33S 36°50' E 174°57'3 3.3
2015-Aug-25 19:34S 36°51' E 174°53'4 4.2
2015-Aug-25 18:33S 36°50' E 174°58'5 1.2
2015-Aug-25 14:33S 36°53' E 174°54'0 0.0
2015-Aug-25 13:33S 36°53' E 174°54'0 0.0
2015-Aug-25 12:21S 36°53' E 174°54'0 0.0
2015-Aug-25 11:33S 36°53' E 174°54'0 0.0
2015-Aug-25 10:33S 36°53' E 174°54'0 0.0
2015-Aug-25 09:33S 36°53' E 174°54'2 0.9
2015-Aug-25 07:33S 36°51' E 174°54'4 3.5
2015-Aug-25 06:30S 36°50' E 174°58'0 0.1
2015-Aug-25 04:33S 36°50' E 174°58'1 1.0
2015-Aug-25 03:26S 36°50' E 174°56'1 1.6
2015-Aug-25 02:33S 36°50' E 174°58'1 0.6
2015-Aug-25 00:33S 36°50' E 174°57'1 0.7
2015-Aug-24 23:26S 36°50' E 174°56'2 1.8
2015-Aug-24 22:33S 36°50' E 174°58'4 3.6
2015-Aug-24 21:33S 36°51' E 174°54'4 3.6
2015-Aug-24 20:33S 36°50' E 174°58'1 0.3
2015-Aug-24 18:33S 36°50' E 174°57'3 0.3
2015-Aug-24 07:33S 36°51' E 174°54'4 4.0
2015-Aug-24 06:34S 36°50' E 174°58'4 4.0
2015-Aug-24 05:33S 36°51' E 174°54'5 4.5
2015-Aug-24 04:33S 36°50' E 174°59'5 4.7
2015-Aug-24 03:33S 36°51' E 174°53'5 5.1
2015-Aug-24 02:33S 36°50' E 174°59'3 3.0
2015-Aug-24 01:30S 36°50' E 174°55'1 1.0
2015-Aug-24 00:33S 36°50' E 174°57'3 2.7
2015-Aug-23 23:33S 36°51' E 174°53'4 3.8
2015-Aug-23 22:32S 36°50' E 174°58'4 3.9
2015-Aug-23 21:33S 36°51' E 174°54'4 3.5
2015-Aug-23 20:33S 36°50' E 174°58'4 3.6
2015-Aug-23 19:34S 36°51' E 174°54'3 3.3
2015-Aug-23 18:33S 36°50' E 174°57'4 3.7
2015-Aug-23 17:27S 36°53' E 174°54'0 0.0
2015-Aug-23 16:27S 36°53' E 174°54'0 0.0
2015-Aug-23 15:27S 36°53' E 174°54'0 0.0
2015-Aug-23 14:33S 36°53' E 174°54'0 0.0
2015-Aug-23 13:30S 36°53' E 174°54'0 0.0
2015-Aug-23 12:33S 36°53' E 174°54'0 0.0
2015-Aug-23 11:33S 36°53' E 174°54'0 0.0
2015-Aug-23 10:30S 36°53' E 174°54'0 0.0
2015-Aug-23 09:24S 36°53' E 174°54'0 0.0
2015-Aug-23 08:27S 36°53' E 174°54'5 2.5
2015-Aug-23 06:33S 36°50' E 174°58'0 0.1
2015-Aug-23 04:33S 36°50' E 174°58'0 0.2
2015-Aug-23 02:33S 36°50' E 174°59'5 4.4
2015-Aug-23 01:26S 36°53' E 174°54'0 0.0
2015-Aug-23 00:26S 36°53' E 174°54'1 1.7
2015-Aug-22 23:33S 36°51' E 174°53'4 4.4
2015-Aug-22 22:33S 36°50' E 174°59'4 4.4
2015-Aug-22 21:33S 36°51' E 174°54'  
Track history (hours):
 
Tides and Currents Weather Stations Pressure Air Temp Water Temp Dewpoint Dewpoint Depression Visibility Wind Speed Wind Dir Waves Ship Positions

Seaway II

Last reported at 2015-Sep-01 21:27 UTC. Time now 2015-Sep-01 22:25 UTC.
Position S 36°50' E 174°55'.

Length 37 m.

Type: Passenger vessel. MMSI: 512001026.

Date/timePositionNaut miles runAvg speedWind from/ knotsBaromVisibWave heightAir tempDewpointWater temp
2015-Sep-01 21:27S 36°50' E 174°55'1 1.0
2015-Sep-01 20:34S 36°50' E 174°57'1 0.8
2015-Sep-01 19:27S 36°50' E 174°56'1 1.6
2015-Sep-01 18:33S 36°50' E 174°57'4 3.7
2015-Sep-01 17:29S 36°53' E 174°54'0 0.0
2015-Sep-01 16:32S 36°53' E 174°54'0 0.0
2015-Sep-01 15:29S 36°53' E 174°54'0 0.0
2015-Sep-01 14:32S 36°53' E 174°54'0 0.0
2015-Sep-01 13:20S 36°53' E 174°54'0 0.0
2015-Sep-01 12:32S 36°53' E 174°54'0 0.0
2015-Sep-01 11:32S 36°53' E 174°54'0 0.0
2015-Sep-01 10:20S 36°53' E 174°54'0 0.0
2015-Sep-01 09:25S 36°53' E 174°54'0 0.0
2015-Sep-01 08:31S 36°53' E 174°54'1 1.4
2015-Sep-01 07:33S 36°51' E 174°54'4 4.3
2015-Sep-01 06:33S 36°50' E 174°58'4 4.1
2015-Sep-01 05:33S 36°51' E 174°53'3 2.8
2015-Sep-01 04:33S 36°50' E 174°57'1 1.0
2015-Sep-01 03:27S 36°49' E 174°56'1 0.7
2015-Sep-01 02:33S 36°50' E 174°55'2 1.2
2015-Sep-01 00:33S 36°50' E 174°58'4 3.6
2015-Aug-31 23:33S 36°51' E 174°53'5 4.5
2015-Aug-31 22:32S 36°50' E 174°59'5 4.8
2015-Aug-31 21:33S 36°51' E 174°54'4 3.7
2015-Aug-31 20:30S 36°50' E 174°58'0 0.1
2015-Aug-31 18:33S 36°50' E 174°58'4 0.7
2015-Aug-31 12:21S 36°53' E 174°54'0 0.0
2015-Aug-31 11:21S 36°53' E 174°54'0 0.0
2015-Aug-31 10:33S 36°53' E 174°54'1 0.3
2015-Aug-31 07:33S 36°52' E 174°54'5 4.7
2015-Aug-31 06:33S 36°50' E 174°59'4 1.9
2015-Aug-31 04:30S 36°50' E 174°54'3 0.8
2015-Aug-31 00:31S 36°50' E 174°58'4 4.2
2015-Aug-30 23:33S 36°51' E 174°53'4 3.9
2015-Aug-30 22:30S 36°50' E 174°58'4 4.4
2015-Aug-30 21:33S 36°51' E 174°53'4 4.0
2015-Aug-30 20:31S 36°50' E 174°58'0 0.1
2015-Aug-30 18:33S 36°50' E 174°58'5 4.5
2015-Aug-30 17:33S 36°53' E 174°54'0 0.0
2015-Aug-30 16:33S 36°53' E 174°54'0 0.0
2015-Aug-30 15:33S 36°53' E 174°54'0 0.0
2015-Aug-30 14:33S 36°53' E 174°54'0 0.0
2015-Aug-30 13:33S 36°53' E 174°54'0 0.0
2015-Aug-30 12:27S 36°53' E 174°54'0 0.0
2015-Aug-30 11:30S 36°53' E 174°54'0 0.0
2015-Aug-30 10:30S 36°53' E 174°54'1 0.4
2015-Aug-30 07:33S 36°52' E 174°54'4 3.7
2015-Aug-30 06:33S 36°50' E 174°58'1 1.1
2015-Aug-30 05:33S 36°50' E 174°56'2 1.7
2015-Aug-30 04:33S 36°51' E 174°54'1 0.6
2015-Aug-30 02:33S 36°50' E 174°55'2 0.7
2015-Aug-29 23:33S 36°51' E 174°53'5 4.6
2015-Aug-29 22:33S 36°50' E 174°59'5 4.6
2015-Aug-29 21:33S 36°51' E 174°53'5 4.8
2015-Aug-29 20:33S 36°49' E 174°59'5 4.5
2015-Aug-29 19:21S 36°53' E 174°54'0 0.0
2015-Aug-29 17:27S 36°53' E 174°54'0 0.0
2015-Aug-29 16:21S 36°53' E 174°54'0 0.0
2015-Aug-29 15:15S 36°53' E 174°54'0 0.0
2015-Aug-29 14:09S 36°53' E 174°54'0 0.0
2015-Aug-29 13:27S 36°53' E 174°54'0 0.0
2015-Aug-29 11:27S 36°53' E 174°54'0 0.0
2015-Aug-29 10:27S 36°53' E 174°54'0 0.0
2015-Aug-29 09:15S 36°53' E 174°54'0 0.0
2015-Aug-29 08:33S 36°53' E 174°54'1 1.5
2015-Aug-29 07:33S 36°51' E 174°54'4 4.4
2015-Aug-29 06:33S 36°50' E 174°59'4 4.4
2015-Aug-29 05:33S 36°52' E 174°54'4 4.1
2015-Aug-29 04:33S 36°50' E 174°58'4 4.1
2015-Aug-29 03:33S 36°51' E 174°53'3 3.2
2015-Aug-29 02:33S 36°50' E 174°57'3 2.7
2015-Aug-29 01:33S 36°51' E 174°54'1 1.3
2015-Aug-29 00:32S 36°50' E 174°55'2 1.6
2015-Aug-28 23:33S 36°50' E 174°53'4 4.2
2015-Aug-28 22:33S 36°50' E 174°58'4 3.6
2015-Aug-28 21:33S 36°51' E 174°54'5 4.6
2015-Aug-28 20:33S 36°50' E 174°59'5 4.8
2015-Aug-28 19:33S 36°51' E 174°53'5 4.8
2015-Aug-28 18:33S 36°50' E 174°59'5 5.3
2015-Aug-28 17:33S 36°53' E 174°54'0 0.0
2015-Aug-28 16:33S 36°53' E 174°54'0 0.0
2015-Aug-28 15:33S 36°53' E 174°54'0 0.0
2015-Aug-28 14:33S 36°53' E 174°54'0 0.0
2015-Aug-28 13:33S 36°53' E 174°54'0 0.0
2015-Aug-28 12:32S 36°53' E 174°54'0 0.0
2015-Aug-28 11:33S 36°53' E 174°54'0 0.0
2015-Aug-28 10:33S 36°53' E 174°54'0 0.0
2015-Aug-28 09:30S 36°53' E 174°54'0 0.0
2015-Aug-28 08:33S 36°53' E 174°54'3 3.3
2015-Aug-28 07:32S 36°50' E 174°56'2 2.4
2015-Aug-28 06:33S 36°51' E 174°53'7 4.8
2015-Aug-28 05:09S 36°49' E 175°01'711.0
2015-Aug-28 04:32S 36°52' E 174°54'7 4.8
2015-Aug-28 03:08S 36°49' E 175°01'711.7
2015-Aug-28 02:33S 36°52' E 174°54'7 4.6
2015-Aug-28 01:07S 36°49' E 175°01'711.9
2015-Aug-28 00:33S 36°51' E 174°53'3 1.5
2015-Aug-27 22:33S 36°50' E 174°57'2 0.8
2015-Aug-27 20:33S 36°50' E 174°59'5 4.7
2015-Aug-27 19:33S 36°51' E 174°54'5 4.8
2015-Aug-27 18:33S 36°50' E 174°59'5 5.0
2015-Aug-27 17:30S 36°53' E 174°54'0 0.0
2015-Aug-27 16:33S 36°53' E 174°54'0 0.0
2015-Aug-27 15:33S 36°53' E 174°54'0 0.0
2015-Aug-27 14:33S 36°53' E 174°54'0 0.0
2015-Aug-27 13:33S 36°53' E 174°54'0 0.0
2015-Aug-27 12:33S 36°53' E 174°54'0 0.0
2015-Aug-27 11:33S 36°53' E 174°54'0 0.0
2015-Aug-27 08:11S 36°53' E 174°54'2 2.5
2015-Aug-27 07:33S 36°51' E 174°53'3 2.6
2015-Aug-27 06:33S 36°50' E 174°56'2 1.1
2015-Aug-27 04:33S 36°51' E 174°54'1 0.7
2015-Aug-27 02:33S 36°50' E 174°55'2 1.7
2015-Aug-27 01:30S 36°50' E 174°58'3 3.5
2015-Aug-27 00:34S 36°51' E 174°54'6 4.1
2015-Aug-26 23:05S 36°49' E 175°01'611.6
2015-Aug-26 22:33S 36°51' E 174°54'2 0.8
2015-Aug-26 20:33S 36°50' E 174°56'2 0.8
2015-Aug-26 18:33S 36°50' E 174°58'4 4.0
2015-Aug-26 17:30S 36°53' E 174°54'0 0.0
2015-Aug-26 16:30S 36°53' E 174°54'0 0.0
2015-Aug-26 15:30S 36°53' E 174°54'0 0.0
2015-Aug-26 14:30S 36°53' E 174°54'0 0.0
2015-Aug-26 13:27S 36°53' E 174°54'0 0.0
2015-Aug-26 12:30S 36°53' E 174°54'0 0.0
2015-Aug-26 11:33S 36°53' E 174°54'0 0.0
2015-Aug-26 10:33S 36°53' E 174°54'0 0.0
2015-Aug-26 09:30S 36°53' E 174°54'0 0.0
2015-Aug-26 08:32S 36°53' E 174°54'2 2.0
2015-Aug-26 07:33S 36°51' E 174°53'5 4.9
2015-Aug-26 06:33S 36°49' E 174°59'5 2.2
2015-Aug-26 04:27S 36°51' E 174°54'3 1.7
2015-Aug-26 02:33S 36°50' E 174°58'4 3.7
2015-Aug-26 01:33S 36°51' E 174°53'3 3.2
2015-Aug-26 00:33S 36°50' E 174°57'0 0.1
2015-Aug-25 22:33S 36°50' E 174°57'0 0.2
2015-Aug-25 20:33S 36°50' E 174°57'3 3.3
2015-Aug-25 19:34S 36°51' E 174°53'4 4.2
2015-Aug-25 18:33S 36°50' E 174°58'5 1.2
2015-Aug-25 14:33S 36°53' E 174°54'0 0.0
2015-Aug-25 13:33S 36°53' E 174°54'0 0.0
2015-Aug-25 12:21S 36°53' E 174°54'0 0.0
2015-Aug-25 11:33S 36°53' E 174°54'0 0.0
2015-Aug-25 10:33S 36°53' E 174°54'0 0.0
2015-Aug-25 09:33S 36°53' E 174°54'2 0.9
2015-Aug-25 07:33S 36°51' E 174°54'4 3.5
2015-Aug-25 06:30S 36°50' E 174°58'0 0.1
2015-Aug-25 04:33S 36°50' E 174°58'1 1.0
2015-Aug-25 03:26S 36°50' E 174°56'1 1.6
2015-Aug-25 02:33S 36°50' E 174°58'1 0.6
2015-Aug-25 00:33S 36°50' E 174°57'1 0.7
2015-Aug-24 23:26S 36°50' E 174°56'2 1.8
2015-Aug-24 22:33S 36°50' E 174°58'4 3.6
2015-Aug-24 21:33S 36°51' E 174°54'4 3.6
2015-Aug-24 20:33S 36°50' E 174°58'1 0.3
2015-Aug-24 18:33S 36°50' E 174°57'3 0.3
2015-Aug-24 07:33S 36°51' E 174°54'4 4.0
2015-Aug-24 06:34S 36°50' E 174°58'4 4.0
2015-Aug-24 05:33S 36°51' E 174°54'5 4.5
2015-Aug-24 04:33S 36°50' E 174°59'5 4.7
2015-Aug-24 03:33S 36°51' E 174°53'5 5.1
2015-Aug-24 02:33S 36°50' E 174°59'3 3.0
2015-Aug-24 01:30S 36°50' E 174°55'1 1.0
2015-Aug-24 00:33S 36°50' E 174°57'3 2.7
2015-Aug-23 23:33S 36°51' E 174°53'4 3.8
2015-Aug-23 22:32S 36°50' E 174°58'4 3.9
2015-Aug-23 21:33S 36°51' E 174°54'4 3.5
2015-Aug-23 20:33S 36°50' E 174°58'4 3.6
2015-Aug-23 19:34S 36°51' E 174°54'3 3.3
2015-Aug-23 18:33S 36°50' E 174°57'4 3.7
2015-Aug-23 17:27S 36°53' E 174°54'0 0.0
2015-Aug-23 16:27S 36°53' E 174°54'0 0.0
2015-Aug-23 15:27S 36°53' E 174°54'0 0.0
2015-Aug-23 14:33S 36°53' E 174°54'0 0.0
2015-Aug-23 13:30S 36°53' E 174°54'0 0.0
2015-Aug-23 12:33S 36°53' E 174°54'0 0.0
2015-Aug-23 11:33S 36°53' E 174°54'0 0.0
2015-Aug-23 10:30S 36°53' E 174°54'0 0.0
2015-Aug-23 09:24S 36°53' E 174°54'0 0.0
2015-Aug-23 08:27S 36°53' E 174°54'5 2.5
2015-Aug-23 06:33S 36°50' E 174°58'0 0.1
2015-Aug-23 04:33S 36°50' E 174°58'0 0.2
2015-Aug-23 02:33S 36°50' E 174°59'5 4.4
2015-Aug-23 01:26S 36°53' E 174°54'0 0.0
2015-Aug-23 00:26S 36°53' E 174°54'1 1.7
2015-Aug-22 23:33S 36°51' E 174°53'4 4.4
2015-Aug-22 22:33S 36°50' E 174°59'4 4.4
2015-Aug-22 21:33S 36°51' E 174°54'  

Dump ship's entire track history